createdAt,value
2019-02-14T00:01:50.787Z,10.08
2019-02-14T00:04:20.256Z,10.03
2019-02-14T00:06:49.703Z,9.63
2019-02-14T00:09:19.110Z,9.33
2019-02-14T00:11:48.521Z,10.30
2019-02-14T00:14:17.984Z,10.18
2019-02-14T00:16:47.475Z,10.00
2019-02-14T00:19:16.996Z,10.68
2019-02-14T00:21:46.463Z,9.93
2019-02-14T00:24:15.840Z,9.75
2019-02-14T00:26:45.220Z,10.53
2019-02-14T00:29:14.696Z,9.38
2019-02-14T00:31:44.139Z,9.88
2019-02-14T00:34:13.502Z,9.83
2019-02-14T00:36:42.887Z,9.58
2019-02-14T00:39:12.349Z,10.10
2019-02-14T00:41:41.695Z,9.73
2019-02-14T00:44:23.818Z,9.98
2019-02-14T00:46:53.162Z,9.80
2019-02-14T00:49:22.491Z,9.93
2019-02-14T00:51:51.867Z,9.48
2019-02-14T00:54:21.323Z,9.25
2019-02-14T00:56:50.687Z,9.20
2019-02-14T00:59:20.108Z,9.75
2019-02-14T01:01:49.514Z,9.28
2019-02-14T01:04:18.838Z,9.40
2019-02-14T01:06:48.218Z,9.75
2019-02-14T01:09:17.755Z,9.45
2019-02-14T01:11:47.217Z,9.85
2019-02-14T01:14:16.534Z,8.38
2019-02-14T01:16:46.055Z,9.85
2019-02-14T01:19:15.582Z,9.13
2019-02-14T01:21:44.914Z,9.00
2019-02-14T01:24:14.354Z,8.90
2019-02-14T01:26:43.784Z,8.60
2019-02-14T01:29:13.184Z,10.00
2019-02-14T01:31:42.769Z,9.68
2019-02-14T01:34:12.242Z,9.50
2019-02-14T01:36:41.701Z,9.48
2019-02-14T01:39:11.177Z,9.70
2019-02-14T01:41:40.499Z,8.63
2019-02-14T01:44:10.028Z,8.70
2019-02-14T01:46:39.572Z,9.60
2019-02-14T01:49:09.328Z,8.68
2019-02-14T01:51:38.669Z,9.95
2019-02-14T01:54:08.062Z,10.15
2019-02-14T01:56:37.452Z,9.98
2019-02-14T01:59:06.774Z,10.65
2019-02-14T02:01:36.120Z,9.75
2019-02-14T02:04:05.435Z,9.85
2019-02-14T02:06:34.836Z,9.78
2019-02-14T02:09:06.998Z,9.93
2019-02-14T02:11:36.556Z,9.80
2019-02-14T02:14:06.031Z,9.20
2019-02-14T02:16:35.512Z,9.40
2019-02-14T02:19:04.904Z,9.13
2019-02-14T02:21:34.408Z,9.48
2019-02-14T02:24:04.557Z,8.98
2019-02-14T02:26:35.171Z,9.35
2019-02-14T02:29:04.508Z,13.22
2019-02-14T02:31:33.976Z,12.45
2019-02-14T02:34:03.429Z,9.35
2019-02-14T02:36:32.806Z,10.28
2019-02-14T06:08:17.780Z,6.87
2019-02-14T06:10:47.232Z,6.90
2019-02-14T06:13:16.489Z,6.50
2019-02-14T06:15:46.086Z,6.30
2019-02-14T06:18:15.525Z,6.12
2019-02-14T06:20:44.834Z,7.00
2019-02-14T06:23:14.442Z,6.97
2019-02-14T06:25:43.848Z,6.72
2019-02-14T06:28:13.224Z,7.67
2019-02-14T06:30:42.730Z,6.55
2019-02-14T06:33:12.184Z,6.10
2019-02-14T06:35:41.980Z,6.30
2019-02-14T06:38:11.398Z,6.65
2019-02-14T06:40:40.786Z,6.65
2019-02-14T06:43:10.180Z,6.92
2019-02-14T06:45:39.683Z,6.72
2019-02-14T06:48:09.398Z,7.03
2019-02-14T06:50:38.856Z,8.23
2019-02-14T06:53:08.386Z,7.65
2019-02-14T06:55:37.926Z,7.12
2019-02-14T06:58:07.321Z,7.47
2019-02-14T07:00:36.887Z,8.30
2019-02-14T07:03:06.305Z,7.25
2019-02-14T07:05:35.626Z,7.40
2019-02-14T07:08:05.064Z,7.42
2019-02-14T07:10:34.523Z,7.85
2019-02-14T07:13:04.005Z,7.42
2019-02-14T07:15:33.429Z,7.28
2019-02-14T07:18:02.899Z,7.87
2019-02-14T07:20:32.288Z,7.85
2019-02-14T07:23:01.656Z,8.63
2019-02-14T07:25:31.112Z,8.15
2019-02-14T07:28:00.481Z,9.40
2019-02-14T07:30:29.939Z,9.83
2019-02-14T07:32:59.338Z,9.25
2019-02-14T07:35:28.651Z,9.70
2019-02-14T07:37:58.195Z,10.53
2019-02-14T07:40:27.723Z,10.78
2019-02-14T07:42:57.128Z,9.98
2019-02-14T07:45:26.485Z,10.63
2019-02-14T07:47:55.965Z,8.95
2019-02-14T07:50:25.458Z,10.40
2019-02-14T07:52:54.967Z,10.13
2019-02-14T07:55:24.437Z,8.90
2019-02-14T07:57:53.833Z,8.58
2019-02-14T08:00:23.291Z,8.65
2019-02-14T08:02:52.696Z,10.00
2019-02-14T08:05:22.142Z,8.45
2019-02-14T08:07:51.649Z,9.45
2019-02-14T08:10:21.022Z,10.53
2019-02-14T08:12:50.449Z,10.45
2019-02-14T08:15:19.990Z,10.28
2019-02-14T08:17:49.303Z,9.53
2019-02-14T08:20:20.469Z,10.50
2019-02-14T08:22:50.047Z,12.78
2019-02-14T08:25:19.504Z,10.90
2019-02-14T08:27:50.546Z,11.53
2019-02-14T08:30:20.838Z,12.28
2019-02-14T08:32:50.246Z,12.70
2019-02-14T08:35:20.520Z,12.70
2019-02-14T08:37:49.896Z,12.37
2019-02-14T08:40:24.552Z,12.43
2019-02-14T08:42:54.469Z,11.85
2019-02-14T08:45:23.814Z,12.15
2019-02-14T08:47:53.170Z,12.98
2019-02-14T08:50:22.728Z,12.90
2019-02-14T08:52:52.123Z,12.90
2019-02-14T08:55:21.462Z,12.75
2019-02-14T08:57:50.808Z,12.82
2019-02-14T09:00:20.237Z,13.85
2019-02-14T09:02:49.618Z,13.30
2019-02-14T09:05:18.984Z,13.70
2019-02-14T09:07:54.322Z,13.75
2019-02-14T09:10:19.426Z,13.05
2019-02-14T09:12:48.865Z,13.90
2019-02-14T09:15:18.272Z,13.72
2019-02-14T09:17:47.675Z,13.50
2019-02-14T09:20:19.240Z,13.35
2019-02-14T09:22:48.683Z,12.50
2019-02-14T09:25:18.145Z,11.38
2019-02-14T09:27:47.529Z,11.38
2019-02-14T09:30:16.992Z,12.75
2019-02-14T09:32:47.395Z,12.03
2019-02-14T09:35:16.859Z,13.60
2019-02-14T09:37:46.202Z,12.65
2019-02-14T09:40:18.474Z,11.75
2019-02-14T09:42:47.818Z,11.53
2019-02-14T09:45:17.414Z,11.45
2019-02-14T09:47:46.851Z,12.20
2019-02-14T09:50:16.268Z,11.83
2019-02-14T09:52:45.736Z,25.35
2019-02-14T09:55:15.244Z,16.20
2019-02-14T09:57:44.591Z,11.68
2019-02-14T10:00:18.124Z,76.22
2019-02-14T10:02:48.600Z,13.15
2019-02-14T10:05:17.976Z,11.78
2019-02-14T10:07:47.729Z,11.05
2019-02-14T10:10:22.354Z,13.53
2019-02-14T10:12:52.686Z,11.93
2019-02-14T10:15:22.012Z,13.43
2019-02-14T10:17:51.342Z,11.88
2019-02-14T10:20:20.854Z,11.28
2019-02-14T10:22:50.182Z,13.25
2019-02-14T10:25:19.643Z,11.88
2019-02-14T10:27:49.462Z,12.00
2019-02-14T10:30:23.800Z,11.68
2019-02-14T10:32:53.159Z,12.70
2019-02-14T10:35:22.548Z,13.55
2019-02-14T10:37:52.104Z,12.95
2019-02-14T10:40:21.484Z,13.32
2019-02-14T10:42:51.245Z,13.50
2019-02-14T10:45:22.589Z,13.60
2019-02-14T10:47:52.083Z,13.25
2019-02-14T10:50:21.483Z,12.43
2019-02-14T10:52:50.805Z,14.25
2019-02-14T10:55:20.153Z,12.88
2019-02-14T10:57:49.560Z,14.83
2019-02-14T11:00:26.239Z,15.25
2019-02-14T11:02:55.636Z,15.10
2019-02-14T11:05:25.054Z,16.10
2019-02-14T11:07:54.792Z,15.13
2019-02-14T11:10:24.148Z,15.93
2019-02-14T11:12:53.615Z,15.80
2019-02-14T11:15:25.228Z,15.68
2019-02-14T11:17:54.782Z,14.78
2019-02-14T11:20:24.289Z,15.55
2019-02-14T11:22:53.817Z,15.53
2019-02-14T11:25:26.339Z,16.75
2019-02-14T11:27:55.724Z,15.70
2019-02-14T11:30:25.223Z,15.88
2019-02-14T11:32:54.767Z,15.20
2019-02-14T11:35:24.409Z,17.20
2019-02-14T11:37:53.905Z,16.52
2019-02-14T11:40:23.464Z,16.02
2019-02-14T11:42:52.989Z,15.72
2019-02-14T11:45:23.999Z,16.17
2019-02-14T11:47:53.586Z,14.85
2019-02-14T11:50:23.133Z,14.95
2019-02-14T11:52:52.594Z,15.13
2019-02-14T11:55:22.082Z,14.98
2019-02-14T11:57:52.528Z,15.55
2019-02-14T12:00:24.650Z,15.75
2019-02-14T12:02:56.022Z,15.32
2019-02-14T12:05:25.134Z,15.25
2019-02-14T12:07:55.737Z,15.48
2019-02-14T12:10:26.290Z,16.35
2019-02-14T12:12:55.695Z,13.98
2019-02-14T12:15:25.285Z,14.90
2019-02-14T12:17:55.098Z,14.83
2019-02-14T12:20:24.481Z,14.85
2019-02-14T12:22:54.197Z,14.28
2019-02-14T12:25:26.506Z,14.63
2019-02-14T12:27:55.982Z,15.83
2019-02-14T12:30:25.347Z,16.55
2019-02-14T12:32:54.748Z,17.35
2019-02-14T12:35:24.290Z,17.92
2019-02-14T12:37:53.731Z,16.77
2019-02-14T12:40:23.052Z,18.27
2019-02-14T12:42:52.545Z,17.42
2019-02-14T12:45:26.059Z,18.32
2019-02-14T12:47:55.798Z,18.70
2019-02-14T12:50:25.366Z,17.57
2019-02-14T12:52:54.740Z,17.60
2019-02-14T12:55:25.215Z,18.23
2019-02-14T12:57:54.716Z,19.70
2019-02-14T13:00:24.607Z,19.07
2019-02-14T13:02:54.003Z,18.05
2019-02-14T13:05:23.466Z,17.55
2019-02-14T13:07:52.834Z,16.97
2019-02-14T13:10:22.317Z,18.40
2019-02-14T13:12:51.663Z,16.70
2019-02-14T13:15:27.691Z,16.65
2019-02-14T13:17:57.089Z,17.37
2019-02-14T13:20:26.561Z,18.55
2019-02-14T13:22:55.948Z,17.77
2019-02-14T13:25:25.279Z,19.00
2019-02-14T13:27:54.757Z,18.87
2019-02-14T13:30:25.797Z,22.00
2019-02-14T13:32:55.220Z,20.40
2019-02-14T13:35:24.711Z,21.42
2019-02-14T13:37:54.278Z,20.77
2019-02-14T13:40:23.681Z,21.20
2019-02-14T13:42:53.146Z,22.60
2019-02-14T13:45:25.662Z,21.87
2019-02-14T13:47:55.150Z,22.58
2019-02-14T13:50:24.493Z,21.75
2019-02-14T13:52:53.955Z,22.00
2019-02-14T13:55:23.290Z,21.57
2019-02-14T13:57:53.209Z,23.47
2019-02-14T14:00:29.584Z,23.75
2019-02-14T14:02:59.005Z,22.50
2019-02-14T14:05:28.782Z,22.67
2019-02-14T14:07:59.196Z,22.90
2019-02-14T14:10:28.607Z,21.75
2019-02-14T14:12:57.939Z,21.90
2019-02-14T14:15:27.382Z,22.52
2019-02-14T14:17:56.807Z,21.95
2019-02-14T14:20:26.133Z,22.55
2019-02-14T14:22:55.657Z,22.37
2019-02-14T14:25:26.066Z,22.58
2019-02-14T14:27:55.487Z,22.22
2019-02-14T14:30:24.872Z,21.73
2019-02-14T14:32:54.322Z,20.72
2019-02-14T14:35:23.807Z,23.07
2019-02-14T14:37:53.336Z,22.05
2019-02-14T14:40:22.827Z,24.23
2019-02-14T14:42:53.840Z,22.93
2019-02-14T14:45:31.061Z,21.73
2019-02-14T14:48:00.485Z,22.60
2019-02-14T14:50:29.889Z,23.15
2019-02-14T14:52:59.290Z,23.27
2019-02-14T14:55:28.683Z,22.35
2019-02-14T14:57:58.017Z,23.90
2019-02-14T15:00:27.612Z,25.92
2019-02-14T15:02:57.017Z,24.72
2019-02-14T15:05:26.427Z,24.25
2019-02-14T15:07:56.832Z,23.90
2019-02-14T15:10:26.237Z,22.85
2019-02-14T15:12:55.654Z,24.40
2019-02-14T15:15:25.086Z,23.42
2019-02-14T15:17:54.879Z,23.47
2019-02-14T15:20:24.275Z,23.18
2019-02-14T15:22:53.868Z,23.80
2019-02-14T15:25:23.268Z,23.50
2019-02-14T15:27:52.648Z,23.35
2019-02-14T15:30:22.007Z,22.37
2019-02-14T15:32:51.486Z,23.27
2019-02-14T15:35:20.956Z,22.60
2019-02-14T15:37:50.354Z,23.42
2019-02-14T15:40:19.826Z,23.05
2019-02-14T15:42:49.226Z,24.05
2019-02-14T15:45:18.629Z,24.35
2019-02-14T15:47:47.951Z,23.38
2019-02-14T15:50:17.359Z,24.70
2019-02-14T15:52:46.802Z,23.42
2019-02-14T15:55:16.222Z,23.92
2019-02-14T15:57:45.689Z,23.27
2019-02-14T16:00:15.693Z,25.85
2019-02-14T16:02:45.117Z,23.32
2019-02-14T16:05:15.024Z,24.15
2019-02-14T16:07:45.552Z,24.20
2019-02-14T16:10:18.672Z,22.93
2019-02-14T16:12:46.050Z,24.32
2019-02-14T16:15:15.549Z,26.07
2019-02-14T16:17:44.863Z,25.55
2019-02-14T16:20:15.368Z,27.75
2019-02-14T16:22:45.674Z,24.47
2019-02-14T16:25:15.168Z,23.92
2019-02-14T16:27:46.411Z,26.42
2019-02-14T16:30:16.573Z,26.48
2019-02-14T16:32:46.423Z,25.05
2019-02-14T16:35:15.865Z,25.77
2019-02-14T16:37:46.531Z,24.98
2019-02-14T16:40:16.340Z,27.52
2019-02-14T16:42:45.764Z,27.35
2019-02-14T16:45:15.098Z,27.80
2019-02-14T16:47:44.477Z,27.00
2019-02-14T16:50:13.816Z,25.85
2019-02-14T16:52:43.221Z,26.55
2019-02-14T16:55:12.595Z,26.70
2019-02-14T16:57:41.910Z,25.92
2019-02-14T17:00:12.498Z,25.48
2019-02-14T17:02:43.157Z,26.45
2019-02-14T17:05:13.620Z,27.50
2019-02-14T17:07:43.040Z,29.92
2019-02-14T17:10:12.489Z,29.10
2019-02-14T17:12:41.968Z,27.45
2019-02-14T17:15:12.657Z,25.72
2019-02-14T17:17:42.592Z,25.70
2019-02-14T17:20:12.074Z,28.65
2019-02-14T17:22:41.522Z,25.52
2019-02-14T17:25:10.962Z,25.27
2019-02-14T17:27:40.292Z,26.45
2019-02-14T17:30:10.090Z,25.05
2019-02-14T17:32:39.549Z,25.50
2019-02-14T17:35:08.943Z,25.72
2019-02-14T17:37:38.340Z,25.48
2019-02-14T17:40:09.312Z,24.32
2019-02-14T17:42:38.781Z,24.90
2019-02-14T17:45:09.637Z,24.43
2019-02-14T17:47:39.062Z,25.17
2019-02-14T17:50:09.025Z,25.10
2019-02-14T17:52:38.507Z,25.65
2019-02-14T17:55:09.633Z,23.73
2019-02-14T17:57:39.105Z,26.57
2019-02-14T18:00:12.587Z,24.98
2019-02-14T18:02:41.979Z,23.57
2019-02-14T18:05:11.460Z,25.08
2019-02-14T18:07:40.900Z,24.30
2019-02-14T18:10:12.515Z,23.73
2019-02-14T18:12:42.006Z,25.75
2019-02-14T18:15:13.198Z,25.35
2019-02-14T18:17:43.786Z,25.40
2019-02-14T18:20:13.203Z,26.55
2019-02-14T18:22:42.588Z,26.37
2019-02-14T18:25:12.687Z,26.42
2019-02-14T18:27:42.002Z,26.30
2019-02-14T18:30:12.177Z,27.15
2019-02-14T18:32:41.594Z,27.02
2019-02-14T18:35:12.355Z,27.22
2019-02-14T18:37:41.706Z,28.73
2019-02-14T18:40:12.033Z,24.67
2019-02-14T18:42:46.389Z,26.48
2019-02-14T18:45:15.823Z,25.80
2019-02-14T18:47:45.309Z,25.35
2019-02-14T18:50:14.987Z,26.75
2019-02-14T18:52:45.415Z,25.97
2019-02-14T18:55:14.744Z,26.45
2019-02-14T18:57:44.126Z,25.77
2019-02-14T19:00:16.248Z,26.55
2019-02-14T19:02:45.569Z,23.85
2019-02-14T19:05:15.066Z,26.75
2019-02-14T19:07:44.572Z,26.87
2019-02-14T19:10:16.077Z,26.17
2019-02-14T19:12:45.532Z,28.77
2019-02-14T19:15:15.003Z,29.15
2019-02-14T19:17:44.397Z,28.52
2019-02-14T19:20:14.239Z,26.42
2019-02-14T19:22:43.553Z,28.32
2019-02-14T19:25:14.039Z,28.23
2019-02-14T19:27:43.526Z,27.62
2019-02-14T19:30:14.549Z,29.02
2019-02-14T19:32:44.299Z,27.62
2019-02-14T19:35:22.446Z,27.67
2019-02-14T19:37:44.607Z,28.00
2019-02-14T19:40:13.960Z,28.38
2019-02-14T19:42:43.428Z,28.17
2019-02-14T19:45:12.822Z,28.55
2019-02-14T19:47:42.234Z,17.23
2019-02-14T19:50:13.309Z,22.67
2019-02-14T19:52:42.726Z,23.45
2019-02-14T19:55:12.156Z,23.32
2019-02-14T19:57:41.497Z,23.80
2019-02-14T20:00:14.841Z,25.23
2019-02-14T20:02:44.162Z,28.42
2019-02-14T20:05:13.475Z,26.40
2019-02-14T20:07:42.906Z,26.07
2019-02-14T20:10:13.870Z,27.82
2019-02-14T20:12:43.262Z,26.75
2019-02-14T20:15:17.868Z,26.95
2019-02-14T20:17:47.350Z,24.82
2019-02-14T20:20:17.737Z,26.23
2019-02-14T20:22:47.092Z,24.95
2019-02-14T20:25:19.697Z,27.17
2019-02-14T20:27:50.077Z,28.23
2019-02-14T20:30:19.632Z,25.35
2019-02-14T20:32:49.014Z,26.25
2019-02-14T20:35:18.359Z,26.52
2019-02-14T20:37:47.704Z,26.33
2019-02-14T20:40:17.131Z,27.17
2019-02-14T20:42:46.433Z,25.72
2019-02-14T20:45:16.063Z,27.27
2019-02-14T20:47:45.435Z,27.85
2019-02-14T20:50:15.419Z,30.12
2019-02-14T20:52:44.918Z,25.02
2019-02-14T20:55:20.171Z,26.60
2019-02-14T20:57:49.698Z,30.32
2019-02-14T21:00:20.749Z,25.92
2019-02-14T21:02:50.499Z,27.30
2019-02-14T21:05:19.964Z,27.42
2019-02-14T21:07:49.363Z,27.45
2019-02-14T21:10:18.717Z,28.50
2019-02-14T21:12:48.130Z,27.95
2019-02-14T21:15:17.522Z,28.45
2019-02-14T21:17:46.884Z,29.18
2019-02-14T21:20:16.774Z,28.38
2019-02-14T21:22:46.242Z,29.70
2019-02-14T21:25:15.645Z,25.40
2019-02-14T21:27:46.162Z,29.45
2019-02-14T21:30:17.607Z,28.50
2019-02-14T21:35:52.761Z,30.05
2019-02-14T21:38:23.289Z,28.70
2019-02-14T21:40:52.716Z,26.93
2019-02-14T21:43:22.153Z,26.82
2019-02-14T21:45:51.571Z,26.10
2019-02-14T21:48:20.964Z,25.70
2019-02-14T21:50:50.597Z,26.05
2019-02-14T21:53:19.940Z,25.77
2019-02-14T21:55:49.430Z,27.67
2019-02-14T21:58:18.852Z,27.30
2019-02-14T22:00:48.191Z,25.48
2019-02-14T22:03:17.687Z,23.70
2019-02-14T22:05:47.090Z,24.10
2019-02-14T22:08:16.586Z,23.45
2019-02-14T22:10:45.978Z,23.60
2019-02-14T22:13:15.514Z,22.73
2019-02-14T22:15:44.852Z,22.52
2019-02-14T22:18:14.242Z,22.80
2019-02-14T22:20:43.678Z,22.87
2019-02-14T22:23:13.092Z,22.85
2019-02-14T22:25:42.501Z,24.00
2019-02-14T22:28:11.969Z,20.48
2019-02-14T22:30:41.359Z,18.90
2019-02-14T22:33:10.772Z,20.62
2019-02-14T22:35:40.131Z,20.65
2019-02-14T22:38:09.441Z,19.30
2019-02-14T22:40:39.214Z,20.85
2019-02-14T22:43:08.779Z,20.30
2019-02-14T22:45:38.135Z,20.40
2019-02-14T22:48:07.527Z,20.37
2019-02-14T22:50:37.087Z,19.48
2019-02-14T22:53:06.534Z,19.05
2019-02-14T22:55:36.031Z,19.73
2019-02-14T22:58:05.463Z,18.42
2019-02-14T23:00:38.392Z,18.45
2019-02-14T23:03:08.815Z,19.87
2019-02-14T23:05:38.140Z,18.73
2019-02-14T23:08:07.856Z,19.37
2019-02-14T23:10:37.239Z,16.93
2019-02-14T23:13:06.710Z,18.23
2019-02-14T23:15:36.247Z,18.25
2019-02-14T23:18:06.175Z,18.65
2019-02-14T23:20:35.573Z,19.92
2019-02-14T23:23:04.964Z,19.15
2019-02-14T23:25:34.492Z,19.77
2019-02-14T23:28:03.961Z,21.50
2019-02-14T23:30:33.302Z,21.50
2019-02-14T23:33:02.850Z,20.75
2019-02-14T23:35:32.617Z,19.57
2019-02-14T23:38:02.021Z,20.50
2019-02-14T23:40:31.481Z,20.88
2019-02-14T23:43:04.847Z,21.25
2019-02-14T23:45:32.073Z,22.40
2019-02-14T23:48:01.477Z,21.40
2019-02-14T23:50:30.805Z,24.18
2019-02-14T23:53:00.241Z,21.15
2019-02-14T23:55:29.631Z,22.20
2019-02-14T23:57:59.369Z,23.55
